sensor_id;sensor_type;location;lat;lon;timestamp;pressure;altitude;pressure_sealevel;temperature;humidity
30110;BME280;14965;50.660;13.226;2022-09-09T00:01:07;94647.38;;;11.66;96.92
30110;BME280;14965;50.660;13.226;2022-09-09T00:03:43;94653.34;;;11.65;96.68
30110;BME280;14965;50.660;13.226;2022-09-09T00:06:21;94645.50;;;11.63;96.82
30110;BME280;14965;50.660;13.226;2022-09-09T00:09:00;94642.41;;;11.61;97.10
30110;BME280;14965;50.660;13.226;2022-09-09T00:11:36;94646.88;;;11.59;97.23
30110;BME280;14965;50.660;13.226;2022-09-09T00:14:16;94648.06;;;11.58;96.97
30110;BME280;14965;50.660;13.226;2022-09-09T00:16:50;94641.47;;;11.55;96.98
30110;BME280;14965;50.660;13.226;2022-09-09T00:19:26;94645.47;;;11.54;97.22
30110;BME280;14965;50.660;13.226;2022-09-09T00:22:16;94651.53;;;11.49;96.85
30110;BME280;14965;50.660;13.226;2022-09-09T00:24:47;94635.53;;;11.44;96.57
30110;BME280;14965;50.660;13.226;2022-09-09T00:27:25;94637.66;;;11.40;96.76
30110;BME280;14965;50.660;13.226;2022-09-09T00:29:57;94639.00;;;11.35;96.67
30110;BME280;14965;50.660;13.226;2022-09-09T00:32:29;94632.38;;;11.33;96.63
30110;BME280;14965;50.660;13.226;2022-09-09T00:35:03;94638.47;;;11.28;96.61
30110;BME280;14965;50.660;13.226;2022-09-09T00:37:30;94628.34;;;11.25;96.56
30110;BME280;14965;50.660;13.226;2022-09-09T00:40:06;94626.91;;;11.20;96.55
30110;BME280;14965;50.660;13.226;2022-09-09T00:42:43;94628.59;;;11.17;96.88
30110;BME280;14965;50.660;13.226;2022-09-09T00:48:14;94634.69;;;11.12;96.45
30110;BME280;14965;50.660;13.226;2022-09-09T00:50:50;94625.28;;;11.10;96.51
30110;BME280;14965;50.660;13.226;2022-09-09T00:53:38;94625.41;;;11.06;96.19
30110;BME280;14965;50.660;13.226;2022-09-09T00:56:13;94630.16;;;11.06;96.53
30110;BME280;14965;50.660;13.226;2022-09-09T00:58:42;94632.63;;;11.04;96.68
30110;BME280;14965;50.660;13.226;2022-09-09T01:01:11;94632.28;;;11.02;96.99
30110;BME280;14965;50.660;13.226;2022-09-09T01:03:45;94631.97;;;11.00;97.15
30110;BME280;14965;50.660;13.226;2022-09-09T01:06:30;94635.94;;;10.98;97.53
30110;BME280;14965;50.660;13.226;2022-09-09T01:09:15;94635.16;;;10.98;97.82
30110;BME280;14965;50.660;13.226;2022-09-09T01:11:55;94637.16;;;10.97;97.93
30110;BME280;14965;50.660;13.226;2022-09-09T01:14:38;94641.16;;;10.96;97.96
30110;BME280;14965;50.660;13.226;2022-09-09T01:17:14;94648.31;;;10.94;98.19
30110;BME280;14965;50.660;13.226;2022-09-09T01:19:57;94646.44;;;10.91;98.10
30110;BME280;14965;50.660;13.226;2022-09-09T01:22:34;94633.97;;;10.86;97.92
30110;BME280;14965;50.660;13.226;2022-09-09T01:25:24;94628.59;;;10.83;97.80
30110;BME280;14965;50.660;13.226;2022-09-09T01:27:59;94631.47;;;10.79;97.60
30110;BME280;14965;50.660;13.226;2022-09-09T01:30:27;94631.13;;;10.77;98.06
30110;BME280;14965;50.660;13.226;2022-09-09T01:32:56;94632.34;;;10.76;98.07
30110;BME280;14965;50.660;13.226;2022-09-09T01:35:35;94639.41;;;10.77;97.81
30110;BME280;14965;50.660;13.226;2022-09-09T01:38:03;94638.66;;;10.77;97.98
30110;BME280;14965;50.660;13.226;2022-09-09T01:40:30;94633.56;;;10.75;98.26
30110;BME280;14965;50.660;13.226;2022-09-09T01:42:57;94635.56;;;10.75;98.14
30110;BME280;14965;50.660;13.226;2022-09-09T01:45:24;94634.00;;;10.73;98.16
30110;BME280;14965;50.660;13.226;2022-09-09T01:47:52;94629.69;;;10.72;98.21
30110;BME280;14965;50.660;13.226;2022-09-09T01:50:19;94625.06;;;10.69;98.25
30110;BME280;14965;50.660;13.226;2022-09-09T01:52:48;94620.75;;;10.68;97.90
30110;BME280;14965;50.660;13.226;2022-09-09T01:55:16;94628.28;;;10.68;97.84
30110;BME280;14965;50.660;13.226;2022-09-09T01:57:54;94625.53;;;10.68;97.82
30110;BME280;14965;50.660;13.226;2022-09-09T02:00:24;94622.44;;;10.66;98.00
30110;BME280;14965;50.660;13.226;2022-09-09T02:03:04;94623.97;;;10.67;98.25
30110;BME280;14965;50.660;13.226;2022-09-09T02:05:37;94625.97;;;10.66;98.48
30110;BME280;14965;50.660;13.226;2022-09-09T02:08:07;94630.28;;;10.67;98.50
30110;BME280;14965;50.660;13.226;2022-09-09T02:10:43;94627.06;;;10.69;98.49
30110;BME280;14965;50.660;13.226;2022-09-09T02:13:14;94620.00;;;10.68;98.79
30110;BME280;14965;50.660;13.226;2022-09-09T02:15:49;94626.41;;;10.65;99.10
30110;BME280;14965;50.660;13.226;2022-09-09T02:18:24;94627.31;;;10.62;98.76
30110;BME280;14965;50.660;13.226;2022-09-09T02:20:53;94624.19;;;10.60;99.01
30110;BME280;14965;50.660;13.226;2022-09-09T02:23:20;94625.75;;;10.61;98.99
30110;BME280;14965;50.660;13.226;2022-09-09T02:25:48;94622.66;;;10.59;99.15
30110;BME280;14965;50.660;13.226;2022-09-09T02:28:17;94623.91;;;10.58;99.17
30110;BME280;14965;50.660;13.226;2022-09-09T02:30:48;94626.75;;;10.54;98.95
30110;BME280;14965;50.660;13.226;2022-09-09T02:33:15;94627.66;;;10.51;98.63
30110;BME280;14965;50.660;13.226;2022-09-09T02:35:43;94632.81;;;10.49;98.64
30110;BME280;14965;50.660;13.226;2022-09-09T02:38:13;94623.34;;;10.50;98.66
30110;BME280;14965;50.660;13.226;2022-09-09T02:40:41;94624.53;;;10.49;98.39
30110;BME280;14965;50.660;13.226;2022-09-09T02:43:07;94625.75;;;10.48;98.65
30110;BME280;14965;50.660;13.226;2022-09-09T02:45:41;94620.25;;;10.48;98.74
30110;BME280;14965;50.660;13.226;2022-09-09T02:48:18;94628.22;;;10.46;98.47
30110;BME280;14965;50.660;13.226;2022-09-09T02:50:55;94621.16;;;10.45;98.49
30110;BME280;14965;50.660;13.226;2022-09-09T02:53:32;94629.09;;;10.43;98.53
30110;BME280;14965;50.660;13.226;2022-09-09T02:56:06;94619.28;;;10.42;98.81
30110;BME280;14965;50.660;13.226;2022-09-09T02:58:35;94627.97;;;10.40;98.82
30110;BME280;14965;50.660;13.226;2022-09-09T03:01:02;94622.44;;;10.40;98.90
30110;BME280;14965;50.660;13.226;2022-09-09T03:03:29;94620.16;;;10.39;98.82
30110;BME280;14965;50.660;13.226;2022-09-09T03:05:55;94619.50;;;10.35;98.87
30110;BME280;14965;50.660;13.226;2022-09-09T03:08:22;94626.66;;;10.32;98.96
30110;BME280;14965;50.660;13.226;2022-09-09T03:10:48;94617.59;;;10.32;99.31
30110;BME280;14965;50.660;13.226;2022-09-09T03:13:14;94625.47;;;10.33;99.37
30110;BME280;14965;50.660;13.226;2022-09-09T03:15:40;94624.69;;;10.33;99.33
30110;BME280;14965;50.660;13.226;2022-09-09T03:18:06;94624.34;;;10.31;99.11
30110;BME280;14965;50.660;13.226;2022-09-09T03:20:33;94634.16;;;10.32;99.28
30110;BME280;14965;50.660;13.226;2022-09-09T03:23:00;94632.97;;;10.33;99.27
30110;BME280;14965;50.660;13.226;2022-09-09T03:25:27;94630.97;;;10.33;99.02
30110;BME280;14965;50.660;13.226;2022-09-09T03:27:54;94632.06;;;10.36;99.18
30110;BME280;14965;50.660;13.226;2022-09-09T03:30:20;94626.44;;;10.39;99.13
30110;BME280;14965;50.660;13.226;2022-09-09T03:32:46;94624.03;;;10.41;99.24
30110;BME280;14965;50.660;13.226;2022-09-09T03:35:12;94624.34;;;10.43;99.63
30110;BME280;14965;50.660;13.226;2022-09-09T03:37:40;94614.41;;;10.46;99.69
30110;BME280;14965;50.660;13.226;2022-09-09T03:40:07;94618.25;;;10.48;99.78
30110;BME280;14965;50.660;13.226;2022-09-09T03:42:33;94618.13;;;10.52;100.00
30110;BME280;14965;50.660;13.226;2022-09-09T03:44:59;94615.72;;;10.54;100.00
30110;BME280;14965;50.660;13.226;2022-09-09T03:47:25;94614.81;;;10.57;99.98
30110;BME280;14965;50.660;13.226;2022-09-09T03:49:50;94617.16;;;10.59;100.00
30110;BME280;14965;50.660;13.226;2022-09-09T03:52:16;94610.41;;;10.60;99.88
30110;BME280;14965;50.660;13.226;2022-09-09T03:54:43;94618.69;;;10.60;99.90
30110;BME280;14965;50.660;13.226;2022-09-09T03:57:10;94611.16;;;10.60;99.82
30110;BME280;14965;50.660;13.226;2022-09-09T03:59:36;94616.38;;;10.58;99.71
30110;BME280;14965;50.660;13.226;2022-09-09T04:02:02;94617.91;;;10.59;99.38
30110;BME280;14965;50.660;13.226;2022-09-09T04:04:28;94618.22;;;10.61;99.48
30110;BME280;14965;50.660;13.226;2022-09-09T04:06:54;94620.09;;;10.64;99.56
30110;BME280;14965;50.660;13.226;2022-09-09T04:09:20;94617.69;;;10.66;99.10
30110;BME280;14965;50.660;13.226;2022-09-09T04:11:47;94613.69;;;10.67;99.08
30110;BME280;14965;50.660;13.226;2022-09-09T04:14:13;94614.00;;;10.69;99.13
30110;BME280;14965;50.660;13.226;2022-09-09T04:16:39;94610.47;;;10.69;99.22
30110;BME280;14965;50.660;13.226;2022-09-09T04:19:05;94611.25;;;10.69;99.56
30110;BME280;14965;50.660;13.226;2022-09-09T04:21:31;94613.59;;;10.71;99.61
30110;BME280;14965;50.660;13.226;2022-09-09T04:23:57;94615.91;;;10.72;99.45
30110;BME280;14965;50.660;13.226;2022-09-09T04:26:23;94608.72;;;10.75;99.31
30110;BME280;14965;50.660;13.226;2022-09-09T04:28:50;94613.78;;;10.77;99.05
30110;BME280;14965;50.660;13.226;2022-09-09T04:31:18;94614.13;;;10.79;99.25
30110;BME280;14965;50.660;13.226;2022-09-09T04:33:44;94612.44;;;10.81;98.96
30110;BME280;14965;50.660;13.226;2022-09-09T04:36:10;94617.19;;;10.81;99.13
30110;BME280;14965;50.660;13.226;2022-09-09T04:38:36;94612.00;;;10.83;99.07
30110;BME280;14965;50.660;13.226;2022-09-09T04:41:02;94616.19;;;10.87;98.81
30110;BME280;14965;50.660;13.226;2022-09-09T04:43:28;94620.81;;;10.90;98.75
30110;BME280;14965;50.660;13.226;2022-09-09T04:45:55;94621.47;;;10.94;99.07
30110;BME280;14965;50.660;13.226;2022-09-09T04:48:21;94626.88;;;10.98;99.22
30110;BME280;14965;50.660;13.226;2022-09-09T04:50:56;94631.81;;;11.03;99.01
30110;BME280;14965;50.660;13.226;2022-09-09T04:53:22;94637.13;;;11.10;99.17
30110;BME280;14965;50.660;13.226;2022-09-09T04:55:48;94638.88;;;11.17;99.23
30110;BME280;14965;50.660;13.226;2022-09-09T04:58:14;94637.06;;;11.23;99.01
30110;BME280;14965;50.660;13.226;2022-09-09T05:00:40;94629.75;;;11.29;98.96
30110;BME280;14965;50.660;13.226;2022-09-09T05:03:07;94629.81;;;11.38;98.41
30110;BME280;14965;50.660;13.226;2022-09-09T05:05:34;94629.56;;;11.45;98.08
30110;BME280;14965;50.660;13.226;2022-09-09T05:08:05;94624.09;;;11.55;98.00
30110;BME280;14965;50.660;13.226;2022-09-09T05:10:31;94626.59;;;11.62;97.52
30110;BME280;14965;50.660;13.226;2022-09-09T05:12:57;94619.56;;;11.70;96.88
30110;BME280;14965;50.660;13.226;2022-09-09T05:15:23;94629.91;;;11.79;96.79
30110;BME280;14965;50.660;13.226;2022-09-09T05:17:49;94641.09;;;11.88;96.16
30110;BME280;14965;50.660;13.226;2022-09-09T05:20:16;94630.97;;;11.94;95.54
30110;BME280;14965;50.660;13.226;2022-09-09T05:22:42;94639.91;;;11.98;95.86
30110;BME280;14965;50.660;13.226;2022-09-09T05:25:08;94642.06;;;12.03;95.37
30110;BME280;14965;50.660;13.226;2022-09-09T05:27:34;94643.03;;;12.09;95.49
30110;BME280;14965;50.660;13.226;2022-09-09T05:30:00;94641.97;;;12.16;95.32
30110;BME280;14965;50.660;13.226;2022-09-09T05:32:26;94638.94;;;12.23;95.31
30110;BME280;14965;50.660;13.226;2022-09-09T05:34:52;94642.97;;;12.31;95.00
30110;BME280;14965;50.660;13.226;2022-09-09T05:37:19;94648.25;;;12.38;94.48
30110;BME280;14965;50.660;13.226;2022-09-09T05:39:45;94645.50;;;12.48;94.28
30110;BME280;14965;50.660;13.226;2022-09-09T05:42:10;94645.88;;;12.59;93.72
30110;BME280;14965;50.660;13.226;2022-09-09T05:44:36;94642.97;;;12.71;93.19
30110;BME280;14965;50.660;13.226;2022-09-09T05:47:03;94636.53;;;12.84;93.14
30110;BME280;14965;50.660;13.226;2022-09-09T05:49:29;94643.50;;;12.98;92.63
30110;BME280;14965;50.660;13.226;2022-09-09T05:51:54;94646.13;;;13.10;92.35
30110;BME280;14965;50.660;13.226;2022-09-09T05:54:22;94644.31;;;13.26;92.05
30110;BME280;14965;50.660;13.226;2022-09-09T05:56:51;94645.09;;;13.35;91.40
30110;BME280;14965;50.660;13.226;2022-09-09T05:59:16;94654.34;;;13.51;91.23
30110;BME280;14965;50.660;13.226;2022-09-09T06:01:42;94648.78;;;13.60;90.32
30110;BME280;14965;50.660;13.226;2022-09-09T06:04:08;94644.28;;;13.62;89.52
30110;BME280;14965;50.660;13.226;2022-09-09T06:06:38;94648.16;;;13.65;88.61
30110;BME280;14965;50.660;13.226;2022-09-09T06:09:06;94644.28;;;13.62;87.87
30110;BME280;14965;50.660;13.226;2022-09-09T06:11:34;94652.31;;;13.60;87.85
30110;BME280;14965;50.660;13.226;2022-09-09T06:14:00;94644.78;;;13.61;87.58
30110;BME280;14965;50.660;13.226;2022-09-09T06:16:28;94646.63;;;13.64;87.25
30110;BME280;14965;50.660;13.226;2022-09-09T06:18:56;94663.88;;;13.68;87.43
30110;BME280;14965;50.660;13.226;2022-09-09T06:21:24;94649.09;;;13.71;87.77
30110;BME280;14965;50.660;13.226;2022-09-09T06:23:51;94650.16;;;13.74;88.06
30110;BME280;14965;50.660;13.226;2022-09-09T06:26:20;94654.63;;;13.80;87.98
30110;BME280;14965;50.660;13.226;2022-09-09T06:28:50;94644.44;;;13.86;87.85
30110;BME280;14965;50.660;13.226;2022-09-09T06:31:18;94652.72;;;13.95;87.54
30110;BME280;14965;50.660;13.226;2022-09-09T06:33:44;94642.41;;;14.05;87.09
30110;BME280;14965;50.660;13.226;2022-09-09T06:36:12;94651.31;;;14.18;86.03
30110;BME280;14965;50.660;13.226;2022-09-09T06:38:38;94649.41;;;14.25;85.50
30110;BME280;14965;50.660;13.226;2022-09-09T06:41:04;94643.69;;;14.28;85.43
30110;BME280;14965;50.660;13.226;2022-09-09T06:43:31;94646.31;;;14.32;85.18
30110;BME280;14965;50.660;13.226;2022-09-09T06:46:00;94636.09;;;14.38;84.81
30110;BME280;14965;50.660;13.226;2022-09-09T06:48:27;94645.63;;;14.46;84.41
30110;BME280;14965;50.660;13.226;2022-09-09T06:51:01;94638.53;;;14.54;84.41
30110;BME280;14965;50.660;13.226;2022-09-09T06:53:27;94640.97;;;14.61;84.33
30110;BME280;14965;50.660;13.226;2022-09-09T06:55:53;94653.00;;;14.67;84.28
30110;BME280;14965;50.660;13.226;2022-09-09T06:58:18;94652.63;;;14.75;84.55
30110;BME280;14965;50.660;13.226;2022-09-09T07:00:44;94652.13;;;14.85;84.77
30110;BME280;14965;50.660;13.226;2022-09-09T07:03:11;94651.13;;;14.98;84.77
30110;BME280;14965;50.660;13.226;2022-09-09T07:05:37;94643.22;;;15.05;84.54
30110;BME280;14965;50.660;13.226;2022-09-09T07:08:03;94646.09;;;15.11;83.73
30110;BME280;14965;50.660;13.226;2022-09-09T07:10:29;94653.94;;;15.22;82.78
30110;BME280;14965;50.660;13.226;2022-09-09T07:12:55;94645.97;;;15.29;82.48
30110;BME280;14965;50.660;13.226;2022-09-09T07:15:21;94651.19;;;15.36;82.44
30110;BME280;14965;50.660;13.226;2022-09-09T07:17:47;94648.03;;;15.43;82.04
30110;BME280;14965;50.660;13.226;2022-09-09T07:20:15;94645.38;;;15.49;81.76
30110;BME280;14965;50.660;13.226;2022-09-09T07:22:41;94650.75;;;15.53;81.17
30110;BME280;14965;50.660;13.226;2022-09-09T07:25:08;94650.38;;;15.60;80.99
30110;BME280;14965;50.660;13.226;2022-09-09T07:27:34;94640.53;;;15.74;80.60
30110;BME280;14965;50.660;13.226;2022-09-09T07:30:00;94650.16;;;15.87;80.24
30110;BME280;14965;50.660;13.226;2022-09-09T07:32:26;94651.72;;;16.03;79.95
30110;BME280;14965;50.660;13.226;2022-09-09T07:34:52;94656.91;;;16.25;79.89
30110;BME280;14965;50.660;13.226;2022-09-09T07:37:19;94651.91;;;16.44;78.85
30110;BME280;14965;50.660;13.226;2022-09-09T07:39:45;94651.66;;;16.62;77.98
30110;BME280;14965;50.660;13.226;2022-09-09T07:42:11;94653.22;;;16.78;76.72
30110;BME280;14965;50.660;13.226;2022-09-09T07:44:37;94655.97;;;16.93;76.61
30110;BME280;14965;50.660;13.226;2022-09-09T07:47:03;94650.13;;;17.11;75.82
30110;BME280;14965;50.660;13.226;2022-09-09T07:49:29;94646.72;;;17.22;75.22
30110;BME280;14965;50.660;13.226;2022-09-09T07:51:55;94644.28;;;17.30;75.28
30110;BME280;14965;50.660;13.226;2022-09-09T07:54:22;94657.56;;;17.35;74.87
30110;BME280;14965;50.660;13.226;2022-09-09T07:56:48;94651.13;;;17.29;74.53
30110;BME280;14965;50.660;13.226;2022-09-09T07:59:14;94661.84;;;17.15;74.97
30110;BME280;14965;50.660;13.226;2022-09-09T08:01:42;94667.19;;;16.99;75.51
30110;BME280;14965;50.660;13.226;2022-09-09T08:04:10;94669.75;;;16.82;76.12
30110;BME280;14965;50.660;13.226;2022-09-09T08:06:39;94666.94;;;16.67;76.91
30110;BME280;14965;50.660;13.226;2022-09-09T08:09:08;94666.56;;;16.59;77.67
30110;BME280;14965;50.660;13.226;2022-09-09T08:11:35;94671.56;;;16.55;78.11
30110;BME280;14965;50.660;13.226;2022-09-09T08:14:02;94661.78;;;16.45;76.76
30110;BME280;14965;50.660;13.226;2022-09-09T08:16:32;94671.31;;;16.38;77.24
30110;BME280;14965;50.660;13.226;2022-09-09T08:18:59;94672.47;;;16.32;77.01
30110;BME280;14965;50.660;13.226;2022-09-09T08:21:27;94678.53;;;16.30;77.67
30110;BME280;14965;50.660;13.226;2022-09-09T08:23:58;94677.47;;;16.28;78.06
30110;BME280;14965;50.660;13.226;2022-09-09T08:26:27;94679.31;;;16.31;78.77
30110;BME280;14965;50.660;13.226;2022-09-09T08:28:58;94682.19;;;16.36;79.76
30110;BME280;14965;50.660;13.226;2022-09-09T08:31:27;94683.03;;;16.42;79.37
30110;BME280;14965;50.660;13.226;2022-09-09T08:33:55;94677.38;;;16.52;79.31
30110;BME280;14965;50.660;13.226;2022-09-09T08:36:24;94672.25;;;16.65;78.90
30110;BME280;14965;50.660;13.226;2022-09-09T08:38:51;94681.19;;;16.84;78.78
30110;BME280;14965;50.660;13.226;2022-09-09T08:42:12;94687.75;;;17.01;77.48
30110;BME280;14965;50.660;13.226;2022-09-09T08:47:56;94685.72;;;17.16;76.40
30110;BME280;14965;50.660;13.226;2022-09-09T08:50:28;94686.28;;;17.21;75.27
30110;BME280;14965;50.660;13.226;2022-09-09T08:52:59;94681.13;;;17.34;75.02
30110;BME280;14965;50.660;13.226;2022-09-09T08:55:37;94681.53;;;17.47;74.44
30110;BME280;14965;50.660;13.226;2022-09-09T08:58:12;94680.72;;;17.61;73.12
30110;BME280;14965;50.660;13.226;2022-09-09T09:03:43;94685.88;;;17.68;72.82
30110;BME280;14965;50.660;13.226;2022-09-09T09:06:29;94678.63;;;17.56;71.40
30110;BME280;14965;50.660;13.226;2022-09-09T09:09:02;94682.09;;;17.51;72.00
30110;BME280;14965;50.660;13.226;2022-09-09T09:11:38;94668.06;;;17.66;72.46
30110;BME280;14965;50.660;13.226;2022-09-09T09:14:10;94680.97;;;18.04;70.58
30110;BME280;14965;50.660;13.226;2022-09-09T09:16:50;94670.53;;;18.31;69.59
30110;BME280;14965;50.660;13.226;2022-09-09T09:19:18;94665.94;;;18.54;70.42
30110;BME280;14965;50.660;13.226;2022-09-09T09:21:48;94666.50;;;18.63;66.45
30110;BME280;14965;50.660;13.226;2022-09-09T09:24:20;94671.69;;;18.71;66.06
30110;BME280;14965;50.660;13.226;2022-09-09T09:26:46;94673.56;;;18.53;67.37
30110;BME280;14965;50.660;13.226;2022-09-09T09:29:15;94670.81;;;18.33;68.42
30110;BME280;14965;50.660;13.226;2022-09-09T09:31:45;94668.56;;;18.37;70.12
30110;BME280;14965;50.660;13.226;2022-09-09T09:34:12;94666.72;;;18.60;70.14
30110;BME280;14965;50.660;13.226;2022-09-09T09:36:43;94668.25;;;18.87;67.29
30110;BME280;14965;50.660;13.226;2022-09-09T09:39:10;94661.91;;;18.92;65.89
30110;BME280;14965;50.660;13.226;2022-09-09T09:41:40;94668.25;;;18.87;66.64
30110;BME280;14965;50.660;13.226;2022-09-09T09:44:24;94666.22;;;18.87;64.53
30110;BME280;14965;50.660;13.226;2022-09-09T09:46:52;94668.66;;;19.11;64.73
30110;BME280;14965;50.660;13.226;2022-09-09T09:49:18;94670.13;;;19.50;64.14
30110;BME280;14965;50.660;13.226;2022-09-09T09:51:44;94672.75;;;19.64;62.41
30110;BME280;14965;50.660;13.226;2022-09-09T09:54:27;94671.00;;;19.67;60.91
30110;BME280;14965;50.660;13.226;2022-09-09T09:56:54;94673.72;;;19.56;61.59
30110;BME280;14965;50.660;13.226;2022-09-09T09:59:23;94660.22;;;19.54;61.99
30110;BME280;14965;50.660;13.226;2022-09-09T10:02:16;94668.53;;;19.86;61.06
30110;BME280;14965;50.660;13.226;2022-09-09T10:04:42;94671.16;;;20.18;60.93
30110;BME280;14965;50.660;13.226;2022-09-09T10:07:12;94666.63;;;20.48;59.88
30110;BME280;14965;50.660;13.226;2022-09-09T10:09:40;94669.94;;;20.52;58.65
30110;BME280;14965;50.660;13.226;2022-09-09T10:12:17;94661.50;;;20.30;59.49
30110;BME280;14965;50.660;13.226;2022-09-09T10:14:54;94667.53;;;19.95;60.94
30110;BME280;14965;50.660;13.226;2022-09-09T10:17:36;94667.34;;;19.55;63.87
30110;BME280;14965;50.660;13.226;2022-09-09T10:20:29;94669.38;;;19.49;62.84
30110;BME280;14965;50.660;13.226;2022-09-09T10:23:12;94663.72;;;19.38;62.18
30110;BME280;14965;50.660;13.226;2022-09-09T10:26:03;94667.69;;;19.63;63.14
30110;BME280;14965;50.660;13.226;2022-09-09T10:28:49;94662.66;;;19.89;62.24
30110;BME280;14965;50.660;13.226;2022-09-09T10:31:30;94665.75;;;19.92;61.71
30110;BME280;14965;50.660;13.226;2022-09-09T10:34:15;94659.38;;;19.91;61.98
30110;BME280;14965;50.660;13.226;2022-09-09T10:36:49;94663.75;;;20.09;61.67
30110;BME280;14965;50.660;13.226;2022-09-09T10:39:31;94666.34;;;20.40;61.19
30110;BME280;14965;50.660;13.226;2022-09-09T10:42:05;94656.16;;;20.32;57.67
30110;BME280;14965;50.660;13.226;2022-09-09T10:44:52;94655.09;;;20.18;57.99
30110;BME280;14965;50.660;13.226;2022-09-09T10:47:43;94657.00;;;19.73;58.86
30110;BME280;14965;50.660;13.226;2022-09-09T10:50:40;94650.91;;;19.74;59.45
30110;BME280;14965;50.660;13.226;2022-09-09T10:53:17;94649.97;;;20.00;60.45
30110;BME280;14965;50.660;13.226;2022-09-09T10:55:52;94641.59;;;20.39;57.75
30110;BME280;14965;50.660;13.226;2022-09-09T10:58:25;94640.63;;;20.59;55.97
30110;BME280;14965;50.660;13.226;2022-09-09T11:00:57;94636.28;;;20.69;54.30
30110;BME280;14965;50.660;13.226;2022-09-09T11:03:29;94634.75;;;20.85;53.42
30110;BME280;14965;50.660;13.226;2022-09-09T11:06:00;94636.00;;;20.89;52.67
30110;BME280;14965;50.660;13.226;2022-09-09T11:08:33;94635.81;;;20.65;51.92
30110;BME280;14965;50.660;13.226;2022-09-09T11:11:04;94630.44;;;20.61;52.73
30110;BME280;14965;50.660;13.226;2022-09-09T11:13:42;94634.50;;;20.60;50.35
30110;BME280;14965;50.660;13.226;2022-09-09T11:16:23;94633.22;;;20.73;54.15
30110;BME280;14965;50.660;13.226;2022-09-09T11:18:59;94631.16;;;21.01;51.80
30110;BME280;14965;50.660;13.226;2022-09-09T11:21:34;94625.72;;;21.26;49.06
30110;BME280;14965;50.660;13.226;2022-09-09T11:24:08;94630.81;;;21.38;48.82
30110;BME280;14965;50.660;13.226;2022-09-09T11:26:43;94641.34;;;21.10;49.83
30110;BME280;14965;50.660;13.226;2022-09-09T11:32:43;94634.38;;;21.50;49.17
30110;BME280;14965;50.660;13.226;2022-09-09T11:35:30;94643.91;;;21.08;48.09
30110;BME280;14965;50.660;13.226;2022-09-09T11:38:18;94637.53;;;20.96;51.63
30110;BME280;14965;50.660;13.226;2022-09-09T11:40:45;94626.56;;;21.04;51.17
30110;BME280;14965;50.660;13.226;2022-09-09T11:43:16;94628.56;;;21.14;51.33
30110;BME280;14965;50.660;13.226;2022-09-09T11:45:52;94625.72;;;21.26;50.60
30110;BME280;14965;50.660;13.226;2022-09-09T11:48:27;94630.31;;;21.29;50.83
30110;BME280;14965;50.660;13.226;2022-09-09T11:51:00;94638.00;;;21.28;49.83
30110;BME280;14965;50.660;13.226;2022-09-09T11:53:27;94638.19;;;21.47;50.74
30110;BME280;14965;50.660;13.226;2022-09-09T11:56:07;94644.59;;;21.48;49.39
30110;BME280;14965;50.660;13.226;2022-09-09T11:58:41;94635.16;;;21.45;50.44
30110;BME280;14965;50.660;13.226;2022-09-09T12:01:30;94630.06;;;21.38;50.46
30110;BME280;14965;50.660;13.226;2022-09-09T12:04:18;94635.72;;;21.16;50.68
30110;BME280;14965;50.660;13.226;2022-09-09T12:06:50;94639.81;;;20.98;51.74
30110;BME280;14965;50.660;13.226;2022-09-09T12:09:27;94641.41;;;20.71;50.93
30110;BME280;14965;50.660;13.226;2022-09-09T12:12:06;94642.69;;;20.70;50.88
30110;BME280;14965;50.660;13.226;2022-09-09T12:14:42;94640.38;;;20.57;51.12
30110;BME280;14965;50.660;13.226;2022-09-09T12:17:17;94629.41;;;20.76;52.37
30110;BME280;14965;50.660;13.226;2022-09-09T12:19:44;94625.78;;;21.09;51.89
30110;BME280;14965;50.660;13.226;2022-09-09T12:22:21;94626.03;;;21.11;50.42
30110;BME280;14965;50.660;13.226;2022-09-09T12:25:01;94624.75;;;21.12;50.49
30110;BME280;14965;50.660;13.226;2022-09-09T12:27:42;94619.31;;;21.31;50.60
30110;BME280;14965;50.660;13.226;2022-09-09T12:30:15;94615.75;;;21.30;50.49
30110;BME280;14965;50.660;13.226;2022-09-09T12:32:41;94616.28;;;21.23;50.71
30110;BME280;14965;50.660;13.226;2022-09-09T12:35:12;94614.25;;;21.18;51.72
30110;BME280;14965;50.660;13.226;2022-09-09T12:37:44;94607.13;;;21.17;51.32
30110;BME280;14965;50.660;13.226;2022-09-09T12:40:23;94609.16;;;21.17;50.04
30110;BME280;14965;50.660;13.226;2022-09-09T12:42:49;94613.25;;;21.16;51.30
30110;BME280;14965;50.660;13.226;2022-09-09T12:45:19;94608.91;;;21.14;49.85
30110;BME280;14965;50.660;13.226;2022-09-09T12:47:52;94607.88;;;21.18;50.43
30110;BME280;14965;50.660;13.226;2022-09-09T12:50:23;94612.22;;;21.19;49.74
30110;BME280;14965;50.660;13.226;2022-09-09T12:52:52;94605.63;;;21.05;49.04
30110;BME280;14965;50.660;13.226;2022-09-09T12:55:27;94605.63;;;20.94;49.80
30110;BME280;14965;50.660;13.226;2022-09-09T12:57:53;94601.84;;;20.80;49.45
30110;BME280;14965;50.660;13.226;2022-09-09T13:00:22;94601.06;;;20.79;50.29
30110;BME280;14965;50.660;13.226;2022-09-09T13:02:51;94597.00;;;20.75;50.69
30110;BME280;14965;50.660;13.226;2022-09-09T13:05:22;94593.94;;;20.73;50.36
30110;BME280;14965;50.660;13.226;2022-09-09T13:07:49;94595.47;;;20.74;52.18
30110;BME280;14965;50.660;13.226;2022-09-09T13:10:25;94593.44;;;20.74;51.56
30110;BME280;14965;50.660;13.226;2022-09-09T13:12:52;94588.81;;;20.77;52.25
30110;BME280;14965;50.660;13.226;2022-09-09T13:15:23;94593.69;;;20.71;51.35
30110;BME280;14965;50.660;13.226;2022-09-09T13:17:55;94596.25;;;20.63;52.13
30110;BME280;14965;50.660;13.226;2022-09-09T13:20:23;94595.00;;;20.53;53.17
30110;BME280;14965;50.660;13.226;2022-09-09T13:22:51;94596.75;;;20.50;53.54